Time;durP1;ratioP1;P1;durP2;ratioP2;P2;SDS_P1;SDS_P2;PMS_P1;PMS_P2;Temp;Humidity;BMP_temperature;BMP_pressure;BME280_temperature;BME280_humidity;BME280_pressure;Samples;Min_cycle;Max_cycle;Signal;HPM_P1;HPM_P2
2021/06/15 00:00:17;;;;;;;15.75;11.75;;;22.30;99.90;;;22.74;64.12;101932.66;5133815;27;20050;-65
2021/06/15 00:02:46;;;;;;;13.75;10.90;;;22.30;99.90;;;22.75;63.98;101939.81;5115626;27;20047;-65
2021/06/15 00:05:17;;;;;;;18.88;12.23;;;22.30;99.90;;;22.66;64.30;101932.06;5133818;27;20436;-65
2021/06/15 00:07:45;;;;;;;;;;;22.20;99.90;;;22.65;64.22;101921.34;5115883;27;20043;-65
2021/06/15 00:10:18;;;;;;;15.63;12.25;;;22.30;99.90;;;22.80;63.88;101942.34;5115574;27;20238;-65
2021/06/15 00:12:47;;;;;;;18.25;12.35;;;22.30;99.90;;;22.76;63.92;101955.06;5134121;27;20047;-65
2021/06/15 00:15:16;;;;;;;17.77;12.18;;;22.30;99.90;;;22.78;64.13;101938.81;5133489;27;20049;-65
2021/06/15 00:17:46;;;;;;;15.35;11.13;;;22.30;99.90;;;22.75;64.24;101937.09;5115222;27;20039;-65
2021/06/15 00:20:18;;;;;;;16.75;11.60;;;22.30;99.90;;;22.77;64.20;101934.34;5115421;27;20051;-65
2021/06/15 00:22:47;;;;;;;17.13;11.23;;;22.30;99.90;;;22.63;63.86;101915.13;5133706;27;20047;-65
2021/06/15 00:25:19;;;;;;;14.32;11.85;;;22.20;99.90;;;22.69;64.38;101941.84;5133649;27;20035;-65
2021/06/15 00:27:48;;;;;;;18.38;11.65;;;22.20;99.90;;;22.69;64.25;101944.53;5133756;27;20202;-65
2021/06/15 00:30:19;;;;;;;15.60;11.13;;;22.20;99.90;;;22.20;64.47;101862.72;5114793;27;20050;-65
2021/06/15 00:32:50;;;;;;;17.25;11.25;;;22.20;99.90;;;22.63;64.16;101942.09;5133606;27;20050;-65
2021/06/15 00:35:20;;;;;;;19.33;11.13;;;22.20;99.90;;;22.67;64.17;101938.31;5133581;27;20058;-65
2021/06/15 00:37:51;;;;;;;14.77;11.63;;;22.20;99.90;;;22.64;64.77;101935.75;5133465;27;20043;-65
2021/06/15 00:40:21;;;;;;;13.25;10.80;;;22.20;99.90;;;22.63;64.26;101936.69;5133538;27;20039;-65
2021/06/15 00:42:50;;;;;;;15.23;10.73;;;22.20;99.90;;;22.67;64.41;101932.91;5133276;27;20047;-65
2021/06/15 00:45:23;;;;;;;19.77;11.20;;;22.20;99.90;;;22.26;64.16;101872.41;5115033;27;20474;-65
2021/06/15 00:47:54;;;;;;;15.75;11.40;;;22.20;99.90;;;22.64;64.24;101931.25;5114951;27;20055;-65
2021/06/15 00:50:27;;;;;;;16.15;10.48;;;22.20;99.90;;;22.53;64.51;101933.41;5133409;27;20054;-65
2021/06/15 00:52:57;;;;;;;15.65;10.25;;;22.10;99.90;;;22.53;64.50;101933.41;5114947;28;20051;-65
2021/06/15 00:55:27;;;;;;;14.32;11.07;;;22.10;99.90;;;22.54;64.59;101935.19;5133142;28;20078;-65
2021/06/15 00:57:56;;;;;;;15.45;11.20;;;22.10;99.90;;;22.59;64.56;101938.59;5111216;28;20144;-65
2021/06/15 01:00:24;;;;;;;14.32;10.52;;;22.20;99.90;;;22.64;64.57;101968.13;5112430;28;20039;-65
2021/06/15 01:02:55;;;;;;;16.05;10.88;;;22.20;99.90;;;22.62;64.80;101943.00;5111332;28;20035;-65
2021/06/15 01:05:28;;;;;;;18.45;11.40;;;22.20;99.90;;;22.57;64.80;101943.19;5111123;28;20142;-65
2021/06/15 01:08:05;;;;;;;16.90;11.80;;;22.20;99.90;;;22.62;64.82;101953.81;5111367;28;20048;-65
2021/06/15 01:10:48;;;;;;;15.05;10.63;;;22.20;99.90;;;22.56;65.01;101948.59;5111380;28;20050;-65
2021/06/15 01:13:36;;;;;;;16.20;11.35;;;22.10;99.90;;;22.49;65.16;101956.06;5111423;28;20047;-65
2021/06/15 01:16:13;;;;;;;16.15;10.93;;;22.00;99.90;;;21.86;65.30;101843.31;5111276;28;20043;-65
2021/06/15 01:18:49;;;;;;;15.93;11.20;;;22.10;99.90;;;22.53;65.47;101973.00;5111201;28;20052;-65
2021/06/15 01:21:21;;;;;;;15.07;10.90;;;22.10;99.90;;;22.55;65.22;101969.28;5111277;28;20044;-65
2021/06/15 01:24:29;;;;;;;13.27;10.00;;;22.10;99.90;;;22.48;65.08;101964.19;5110971;28;20056;-65
2021/06/15 01:27:44;;;;;;;12.88;9.80;;;22.10;99.90;;;22.50;65.04;101970.41;5111204;28;20051;-65
2021/06/15 01:30:15;;;;;;;15.00;9.75;;;22.00;99.90;;;22.49;64.89;101974.94;5112568;28;20071;-65
2021/06/15 01:33:00;;;;;;;14.98;9.43;;;22.00;99.90;;;22.52;65.09;101960.44;5112601;28;20059;-65
2021/06/15 01:35:31;;;;;;;13.93;8.75;;;22.10;99.90;;;22.48;65.06;101964.19;5112554;28;20404;-65
2021/06/15 01:38:04;;;;;;;12.23;9.00;;;22.10;99.90;;;22.51;64.92;101967.66;5111060;28;20567;-65
2021/06/15 01:40:39;;;;;;;13.18;8.55;;;22.00;99.90;;;22.49;65.08;101977.63;5112088;28;20128;-65
2021/06/15 01:43:22;;;;;;;13.48;8.65;;;22.00;99.90;;;22.54;65.08;101975.63;5112287;28;20047;-65
2021/06/15 01:45:54;;;;;;;12.13;8.48;;;22.10;99.90;;;22.45;64.77;101976.84;5116292;28;20067;-65
2021/06/15 01:48:34;;;;;;;13.45;8.55;;;22.00;99.90;;;22.48;64.51;101973.16;5114536;28;20054;-65
2021/06/15 01:51:08;;;;;;;12.73;7.67;;;22.00;99.90;;;22.47;64.63;101979.50;5114911;28;20130;-65
2021/06/15 01:53:45;;;;;;;12.77;7.90;;;22.10;99.90;;;22.48;64.45;101978.53;5114441;28;20075;-65
2021/06/15 01:56:20;;;;;;;11.63;8.23;;;22.00;99.90;;;22.45;64.31;101968.75;5114886;28;20048;-65
2021/06/15 01:58:58;;;;;;;9.90;7.10;;;22.00;99.90;;;22.46;64.20;101961.53;5134831;27;20054;-65
2021/06/15 02:01:32;;;;;;;17.45;7.93;;;22.00;99.90;;;22.40;64.21;101965.34;5117759;27;20050;-65
2021/06/15 02:04:05;;;;;;;9.65;7.65;;;22.00;99.90;;;22.35;63.80;101961.06;5117991;27;20130;-65
2021/06/15 02:06:36;;;;;;;11.95;7.40;;;21.90;99.90;;;22.41;63.64;101974.31;5117880;27;20054;-65
2021/06/15 02:09:07;;;;;;;10.38;6.82;;;22.00;99.90;;;22.45;63.86;101973.28;5117853;27;20047;-65
2021/06/15 02:11:46;;;;;;;11.27;6.80;;;22.00;99.90;;;22.45;63.82;101976.84;5117851;27;20066;-65
2021/06/15 02:14:26;;;;;;;8.30;6.70;;;22.00;99.90;;;22.38;63.74;101974.41;5118020;27;20075;-65
2021/06/15 02:17:19;;;;;;;10.98;6.75;;;22.00;99.90;;;22.35;63.86;101980.81;5127291;27;20067;-65
2021/06/15 02:20:12;;;;;;;10.60;6.70;;;21.90;99.90;;;22.38;63.80;101972.59;5134612;27;20055;-65
2021/06/15 02:22:46;;;;;;;10.15;7.00;;;21.90;99.90;;;22.37;63.82;101984.34;5135865;27;20051;-65
2021/06/15 02:25:22;;;;;;;10.07;6.97;;;21.90;99.90;;;22.38;64.06;101974.41;5135822;27;20050;-65
2021/06/15 02:27:51;;;;;;;10.32;6.00;;;21.90;99.90;;;22.35;63.83;101983.50;5117579;27;20049;-65
2021/06/15 02:30:24;;;;;;;;;;;21.90;99.90;;;22.36;63.88;101976.28;5117888;27;20088;-65
2021/06/15 02:33:06;;;;;;;13.32;7.55;;;22.00;99.90;;;22.31;63.56;101978.28;5117418;27;19954;-65
2021/06/15 02:35:41;;;;;;;9.30;6.78;;;21.90;99.90;;;22.29;63.59;101972.94;5117295;27;20047;-65
2021/06/15 02:38:15;;;;;;;11.77;6.88;;;21.90;99.90;;;22.29;63.65;101956.75;5135897;27;20043;-65
2021/06/15 02:40:44;;;;;;;13.90;7.43;;;21.90;99.90;;;22.20;63.86;101967.00;5135723;27;20039;-65
2021/06/15 02:43:15;;;;;;;8.82;6.03;;;21.80;99.90;;;22.24;64.08;101953.31;5117260;27;20043;-65
2021/06/15 02:45:47;;;;;;;10.43;6.60;;;21.80;99.90;;;22.22;64.00;101959.72;5117255;27;20079;-65
2021/06/15 02:48:19;;;;;;;8.02;6.28;;;21.80;99.90;;;22.20;64.20;101962.44;5117086;27;20100;-65
2021/06/15 02:50:53;;;;;;;10.98;6.18;;;21.80;99.90;;;22.21;64.15;101960.66;5117070;27;20051;-65
2021/06/15 02:53:27;;;;;;;9.10;6.60;;;21.80;99.90;;;22.18;64.24;101944.59;5116675;27;20507;-65
2021/06/15 02:56:03;;;;;;;8.35;6.40;;;21.80;99.90;;;22.14;64.11;101969.91;5116944;27;20055;-65
2021/06/15 02:58:36;;;;;;;9.38;5.88;;;21.80;99.90;;;22.04;64.44;101941.50;5113516;28;20091;-65
2021/06/15 03:01:07;;;;;;;9.43;6.90;;;21.70;99.90;;;22.08;64.51;101962.00;5113436;28;20521;-65
2021/06/15 03:03:42;;;;;;;10.23;6.80;;;21.60;99.90;;;21.83;64.39;101937.72;5113431;28;20437;-65
2021/06/15 03:06:10;;;;;;;9.18;6.63;;;21.60;99.90;;;21.94;64.54;101970.56;5114660;28;20446;-65
2021/06/15 03:08:40;;;;;;;12.80;6.60;;;21.50;99.90;;;21.96;64.40;101982.19;5113042;28;20425;-65
2021/06/15 03:11:11;;;;;;;10.98;6.70;;;21.50;99.90;;;21.95;64.60;101976.84;5113055;28;20058;-65
2021/06/15 03:13:49;;;;;;;8.68;5.63;;;21.50;99.90;;;21.83;64.59;101977.25;5114947;28;20043;-65
2021/06/15 03:16:26;;;;;;;8.98;5.75;;;21.50;99.90;;;21.80;64.64;101980.91;5112931;28;20079;-65
2021/06/15 03:19:07;;;;;;;9.15;5.55;;;21.50;99.90;;;21.94;63.70;101996.63;5113030;28;20063;-65
2021/06/15 03:21:45;;;;;;;10.55;5.38;;;21.50;99.90;;;21.91;64.00;102000.28;5113111;28;20090;-65
2021/06/15 03:24:23;;;;;;;8.25;5.05;;;21.50;99.90;;;21.92;63.27;102002.06;5112967;28;20062;-65
2021/06/15 03:27:01;;;;;;;10.00;5.70;;;21.50;99.90;;;21.51;63.12;101913.63;5114369;28;20050;-65
2021/06/15 03:29:35;;;;;;;7.20;5.53;;;21.50;99.90;;;21.93;62.52;101982.25;5112855;28;20105;-65
2021/06/15 03:32:09;;;;;;;9.55;5.40;;;21.50;99.90;;;21.91;63.10;101988.66;5112744;28;20074;-65
2021/06/15 03:34:45;;;;;;;8.20;5.18;;;21.50;99.90;;;21.62;63.17;101948.28;5114195;28;20474;-65
2021/06/15 03:37:19;;;;;;;6.88;4.68;;;21.50;99.90;;;21.89;63.18;101982.44;5112710;28;20051;-65
2021/06/15 03:39:50;;;;;;;8.73;5.13;;;21.50;99.90;;;21.84;62.79;101979.88;5112685;28;20036;-65
2021/06/15 03:42:23;;;;;;;9.27;5.30;;;21.40;99.90;;;21.85;62.72;101992.44;5112749;28;20048;-65
2021/06/15 03:45:01;;;;;;;9.38;5.15;;;21.40;99.90;;;21.87;62.64;101995.97;5113683;27;20043;-65
2021/06/15 03:47:34;;;;;;;10.00;5.30;;;21.40;99.90;;;21.84;62.24;101985.28;5113666;28;20055;-65
2021/06/15 03:50:05;;;;;;;6.72;4.20;;;21.40;99.90;;;21.74;62.01;101989.16;5113894;28;20089;-65
2021/06/15 03:52:38;;;;;;;10.55;4.63;;;21.40;99.90;;;21.15;61.88;101896.84;5112503;28;20063;-65
2021/06/15 03:55:10;;;;;;;7.90;4.47;;;21.30;99.90;;;21.64;62.14;101985.00;5113569;28;20043;-65
2021/06/15 03:57:41;;;;;;;6.57;4.30;;;21.30;99.90;;;21.75;61.90;102000.81;5112092;28;20051;-65
2021/06/15 04:00:13;;;;;;;7.57;4.70;;;21.30;99.90;;;21.73;61.31;102008.06;5112338;28;20055;-65
2021/06/15 04:02:46;;;;;;;8.43;4.20;;;21.30;99.90;;;21.72;61.94;102012.56;5113683;28;20036;-65
2021/06/15 04:05:16;;;;;;;8.60;4.45;;;21.30;99.90;;;21.67;61.54;102009.16;5113166;28;20065;-65
2021/06/15 04:07:46;;;;;;;6.32;3.80;;;21.30;99.90;;;21.68;61.15;102013.59;5113504;28;20069;-66
2021/06/15 04:10:16;;;;;;;;;;;21.20;99.90;;;21.72;61.41;102009.88;5113676;28;20075;-66
2021/06/15 04:12:47;;;;;;;7.57;3.85;;;21.30;99.90;;;21.71;61.29;102001.84;5113218;28;19919;-65
2021/06/15 04:15:16;;;;;;;6.60;3.70;;;21.30;99.90;;;21.62;61.05;102000.34;5113420;28;20085;-66
2021/06/15 04:17:50;;;;;;;6.45;4.43;;;21.20;99.90;;;21.65;60.77;102010.13;5113353;28;20088;-66
2021/06/15 04:20:22;;;;;;;5.72;4.07;;;21.20;99.90;;;21.10;61.23;101923.00;5113307;27;20043;-65
2021/06/15 04:22:54;;;;;;;4.45;3.35;;;21.20;99.90;;;21.61;60.93;102003.06;5113376;27;20040;-65
2021/06/15 04:25:27;;;;;;;11.48;3.90;;;21.20;99.90;;;21.55;60.90;102009.53;5113163;28;20052;-66
2021/06/15 04:27:56;;;;;;;6.20;3.85;;;21.20;99.90;;;21.58;61.06;102015.72;5111986;28;20459;-65
2021/06/15 04:30:29;;;;;;;6.45;3.90;;;21.20;99.90;;;20.83;61.15;101913.06;5113108;28;20043;-66
2021/06/15 04:33:02;;;;;;;5.65;3.25;;;21.00;99.90;;;21.43;61.07;102020.69;5112959;28;20126;-65
2021/06/15 04:35:34;;;;;;;8.20;3.72;;;21.00;99.90;;;21.45;60.88;102011.63;5113225;28;20055;-66
2021/06/15 04:38:09;;;;;;;4.75;3.25;;;21.10;99.90;;;21.51;60.96;102013.25;5112828;28;20039;-65
2021/06/15 04:40:41;;;;;;;7.65;3.50;;;21.10;99.90;;;21.44;61.05;102007.19;5113010;28;20043;-65
2021/06/15 04:43:32;;;;;;;5.65;3.35;;;21.10;99.90;;;21.44;60.71;102022.47;5111782;28;20051;-65
2021/06/15 04:46:14;;;;;;;8.82;4.28;;;21.10;99.90;;;21.34;60.95;102023.66;5112984;28;20116;-66
2021/06/15 04:48:49;;;;;;;6.55;3.67;;;21.00;99.90;;;21.40;61.29;102035.16;5112816;28;20039;-65
2021/06/15 04:51:21;;;;;;;7.45;4.00;;;21.00;99.90;;;21.43;61.19;102035.03;5112507;28;20048;-66
2021/06/15 04:53:51;;;;;;;7.28;3.78;;;21.00;99.90;;;21.46;61.21;102039.47;5112970;28;20401;-65
2021/06/15 04:56:22;;;;;;;6.93;3.40;;;21.10;99.90;;;21.46;60.86;102031.38;5111484;28;20044;-66
2021/06/15 04:58:53;;;;;;;8.00;3.53;;;21.10;99.90;;;21.31;61.09;102004.94;5131619;28;20372;-66
2021/06/15 05:01:22;;;;;;;7.10;3.75;;;21.10;99.90;;;21.56;61.17;102033.72;5133058;28;20078;-65
2021/06/15 05:03:53;;;;;;;7.85;3.75;;;21.10;99.90;;;21.58;61.04;102034.56;5133345;28;20055;-66
2021/06/15 05:06:23;;;;;;;7.78;3.65;;;21.20;99.90;;;21.65;60.84;102046.03;5133076;28;20407;-66
2021/06/15 05:08:57;;;;;;;6.70;3.30;;;21.20;99.90;;;21.63;60.84;102049.69;5133152;28;20085;-66
2021/06/15 05:11:28;;;;;;;6.60;3.45;;;21.20;99.90;;;21.62;60.77;102034.47;5133285;28;20473;-65
2021/06/15 05:14:00;;;;;;;4.90;3.42;;;21.20;99.90;;;21.68;60.36;102045.94;5133133;28;20046;-66
2021/06/15 05:16:33;;;;;;;7.72;3.95;;;21.30;99.90;;;21.53;60.27;102055.38;5133169;27;20047;-66
2021/06/15 05:19:04;;;;;;;8.77;3.80;;;21.20;99.90;;;21.59;60.04;102046.22;5117491;27;20051;-65
2021/06/15 05:21:41;;;;;;;8.60;4.07;;;21.20;99.90;;;21.63;60.19;102049.69;5137115;27;20039;-66
2021/06/15 05:24:18;;;;;;;8.73;3.72;;;21.20;99.90;;;21.64;60.39;102051.47;5118618;27;20445;-66
2021/06/15 05:26:46;;;;;;;8.35;3.95;;;21.20;99.90;;;21.65;60.28;102048.72;5118483;27;20050;-66
2021/06/15 05:29:15;;;;;;;7.85;3.85;;;21.20;99.90;;;21.66;60.07;102049.63;5118642;27;20468;-66
2021/06/15 05:31:43;;;;;;;8.35;4.05;;;21.20;99.90;;;21.70;59.97;102059.38;5118570;27;20130;-66
2021/06/15 05:34:15;;;;;;;6.15;3.60;;;21.30;99.90;;;21.70;59.95;102056.69;5136800;27;20449;-66
2021/06/15 05:36:45;;;;;;;7.07;3.97;;;21.30;99.90;;;20.50;62.78;102049.34;5137033;27;20031;-66
2021/06/15 05:39:14;;;;;;;9.00;4.00;;;20.50;99.90;;;20.45;63.00;102048.59;5136977;27;20051;-66
2021/06/15 05:41:42;;;;;;;6.60;3.33;;;20.20;99.90;;;20.55;62.67;102050.13;5136750;27;20383;-65
2021/06/15 05:44:11;;;;;;;8.63;4.03;;;20.30;99.90;;;20.19;63.81;102056.44;5136796;27;20058;-65
2021/06/15 05:46:40;;;;;;;8.30;3.45;;;19.90;99.90;;;20.38;63.86;102057.72;5136568;27;20404;-66
2021/06/15 05:49:08;;;;;;;7.22;3.58;;;19.90;99.90;;;20.59;63.71;102065.25;5118293;27;20039;-66
2021/06/15 05:51:39;;;;;;;9.70;4.00;;;20.10;99.90;;;20.53;63.41;102070.78;5118092;27;20039;-66
2021/06/15 05:54:09;;;;;;;8.77;3.90;;;20.20;99.90;;;20.41;63.64;102024.53;5136510;27;20080;-65
2021/06/15 05:56:37;;;;;;;7.65;3.38;;;20.30;99.90;;;20.83;63.42;102077.13;5136667;27;20047;-66
2021/06/15 05:59:06;;;;;;;10.52;3.65;;;20.40;99.90;;;20.80;63.05;102073.66;5136581;27;20043;-67
2021/06/15 06:01:34;;;;;;;9.50;3.78;;;20.50;99.90;;;20.73;63.17;102067.53;5136078;27;20545;-66
2021/06/15 06:04:05;;;;;;;6.68;3.47;;;20.40;99.90;;;20.88;63.17;102079.72;5136435;27;20047;-66
2021/06/15 06:09:20;;;;;;;9.80;4.18;;;20.60;99.90;;;21.15;62.99;102090.63;5087039;27;19944;-66
2021/06/15 06:11:49;;;;;;;6.57;3.88;;;20.80;99.90;;;20.98;63.17;102041.72;5136295;27;20050;-66
2021/06/15 06:14:18;;;;;;;8.07;4.35;;;20.90;99.90;;;21.42;63.03;102100.59;5136223;27;20092;-66
2021/06/15 06:16:46;;;;;;;9.93;3.78;;;21.00;99.90;;;21.48;62.79;102104.91;5117743;27;20059;-66
2021/06/15 06:19:16;;;;;;;9.02;3.67;;;21.00;99.90;;;21.56;62.39;102102.88;5117561;27;20511;-66
2021/06/15 06:21:45;;;;;;;9.05;3.92;;;21.20;99.90;;;21.61;61.82;102108.13;5135711;27;20492;-65
2021/06/15 06:24:14;;;;;;;7.65;4.10;;;21.20;99.90;;;21.71;61.95;102115.88;5136018;27;20082;-66
2021/06/15 06:26:46;;;;;;;7.57;3.40;;;21.30;99.90;;;21.72;61.62;102117.63;5117424;27;20108;-66
2021/06/15 06:29:16;;;;;;;8.57;3.78;;;21.30;99.90;;;21.75;61.73;102117.56;5135496;27;20043;-65
2021/06/15 06:31:44;;;;;;;10.20;3.88;;;21.40;99.90;;;21.74;61.37;102112.22;5135575;27;20051;-66
2021/06/15 06:34:13;;;;;;;11.90;4.15;;;21.40;99.90;;;21.82;61.31;102127.25;5136120;27;20043;-66
2021/06/15 06:36:42;;;;;;;8.85;4.25;;;21.40;99.90;;;21.84;61.43;102125.38;5135537;27;20604;-66
2021/06/15 06:39:11;;;;;;;7.93;4.40;;;21.50;99.90;;;21.71;60.45;102125.78;5135536;27;20039;-66
2021/06/15 06:41:40;;;;;;;10.85;4.45;;;21.40;99.90;;;21.54;61.96;102112.81;5135380;27;20801;-66
2021/06/15 06:44:10;;;;;;;11.98;4.15;;;21.10;99.90;;;21.73;62.39;102119.41;5135669;27;20031;-66
2021/06/15 06:46:39;;;;;;;6.00;4.10;;;21.30;99.90;;;21.74;61.61;102123.84;5135681;27;20408;-66
2021/06/15 06:49:07;;;;;;;8.18;3.33;;;21.30;99.90;;;21.75;61.50;102122.94;5135548;27;20483;-66
2021/06/15 06:51:36;;;;;;;10.27;4.05;;;21.30;99.90;;;21.76;61.32;102119.31;5135508;27;20051;-66
2021/06/15 06:54:05;;;;;;;13.95;4.18;;;21.40;99.90;;;20.44;64.51;102127.47;5135426;27;20444;-66
2021/06/15 06:56:34;;;;;;;9.35;4.15;;;20.30;99.90;;;20.98;64.81;102125.13;5135129;27;20043;-65
2021/06/15 06:59:03;;;;;;;13.68;4.60;;;20.50;99.90;;;21.18;63.71;102132.69;5135502;27;20051;-66
2021/06/15 07:01:32;;;;;;;10.40;4.22;;;20.80;99.90;;;21.07;63.96;102122.25;5134902;27;20070;-66
2021/06/15 07:04:01;;;;;;;9.60;3.88;;;20.70;99.90;;;20.69;64.07;102103.53;5135309;27;20166;-66
2021/06/15 07:06:30;;;;;;;10.15;4.75;;;20.60;99.90;;;20.85;64.44;102128.25;5135497;27;20053;-66
2021/06/15 07:08:58;;;;;;;11.63;4.15;;;20.50;99.90;;;20.63;65.11;102118.00;5135123;27;20051;-66
2021/06/15 07:11:27;;;;;;;10.57;4.03;;;20.40;99.90;;;21.11;65.02;102137.41;5116307;27;20142;-66
2021/06/15 07:13:55;;;;;;;9.48;4.07;;;20.60;99.90;;;20.83;65.15;102112.13;5135027;27;20047;-66
2021/06/15 07:16:23;;;;;;;10.95;4.43;;;20.50;99.90;;;21.29;65.49;102131.47;5134975;27;20426;-66
2021/06/15 07:18:54;;;;;;;10.63;3.90;;;20.80;99.90;;;21.56;64.51;102129.81;5134735;27;20087;-66
2021/06/15 07:21:22;;;;;;;9.80;4.10;;;21.10;99.90;;;21.81;63.96;102133.56;5134714;27;20496;-66
2021/06/15 07:23:51;;;;;;;8.82;4.03;;;21.30;99.90;;;21.92;63.25;102134.13;5134562;27;20464;-66
2021/06/15 07:26:21;;;;;;;9.88;4.55;;;21.50;99.90;;;20.61;64.28;102135.13;5134772;27;20047;-66
2021/06/15 07:28:51;;;;;;;9.02;4.25;;;20.50;99.90;;;20.38;64.84;102135.69;5135001;27;20062;-66
2021/06/15 07:31:20;;;;;;;11.67;4.03;;;20.20;99.90;;;20.66;65.44;102143.94;5134787;27;20099;-66
2021/06/15 07:33:48;;;;;;;8.93;4.55;;;20.10;99.90;;;21.20;65.44;102141.63;5134464;27;20070;-66
2021/06/15 07:36:18;;;;;;;10.65;4.50;;;20.70;99.90;;;21.46;64.05;102139.97;5134357;27;20055;-65
2021/06/15 07:38:47;;;;;;;12.52;5.07;;;20.90;99.90;;;21.56;62.97;102124.44;5116096;27;20079;-66
2021/06/15 07:41:15;;;;;;;11.32;4.53;;;21.30;99.90;;;21.78;62.09;102135.41;5133166;27;20047;-67
2021/06/15 07:43:44;;;;;;;9.18;4.00;;;21.40;99.90;;;21.78;61.32;102152.47;5116017;27;20127;-67
2021/06/15 07:46:14;;;;;;;8.90;4.57;;;21.50;99.90;;;21.81;61.07;102132.69;5116033;27;20070;-67
2021/06/15 07:48:42;;;;;;;9.77;4.15;;;21.50;99.90;;;21.84;61.89;102100.25;5134466;27;20043;-67
2021/06/15 07:51:11;;;;;;;10.80;4.72;;;21.50;99.90;;;22.19;61.03;102133.25;5134098;27;20096;-67
2021/06/15 07:53:41;;;;;;;9.45;4.40;;;21.80;99.90;;;21.60;60.27;102133.28;5134315;27;20062;-68
2021/06/15 07:56:10;;;;;;;13.43;4.93;;;21.50;99.90;;;21.13;62.36;102131.97;5134304;27;20110;-67
2021/06/15 07:58:38;;;;;;;11.52;4.22;;;20.90;99.90;;;21.24;61.99;102129.84;5133787;27;20079;-67
2021/06/15 08:01:07;;;;;;;10.55;4.28;;;20.90;99.90;;;21.20;62.61;102130.84;5133942;27;20492;-67
2021/06/15 08:03:36;;;;;;;9.10;4.28;;;20.90;99.90;;;21.01;63.66;102119.72;5133820;27;20057;-69
2021/06/15 08:06:05;;;;;;;11.20;4.65;;;20.70;99.90;;;21.55;62.29;102128.94;5134095;27;20047;-68
2021/06/15 08:08:33;;;;;;;9.05;4.03;;;21.00;99.90;;;21.70;61.30;102124.88;5134102;27;20166;-67
2021/06/15 08:11:03;;;;;;;15.68;4.57;;;21.20;99.90;;;21.84;61.22;102129.88;5134051;27;20047;-69
2021/06/15 08:13:33;;;;;;;6.60;4.00;;;21.40;99.90;;;21.92;61.56;102123.34;5133768;27;20080;-68
2021/06/15 08:16:02;;;;;;;8.77;4.03;;;21.50;99.90;;;21.28;60.21;102127.03;5133572;27;20051;-69
2021/06/15 08:18:31;;;;;;;10.63;3.72;;;21.10;99.90;;;21.65;60.10;102121.44;5134086;27;20318;-67
2021/06/15 08:21:00;;;;;;;9.75;4.43;;;21.20;99.90;;;21.81;60.76;102122.78;5133878;27;20053;-67
2021/06/15 08:23:31;;;;;;;9.07;4.00;;;21.40;99.90;;;20.77;61.75;102111.41;5133859;27;20092;-67
2021/06/15 08:25:59;;;;;;;9.88;4.70;;;20.80;99.90;;;20.84;62.29;102123.75;5133843;27;20104;-67
2021/06/15 08:28:29;;;;;;;7.35;4.20;;;20.50;99.90;;;21.42;61.61;102118.56;5133483;27;20066;-68
2021/06/15 08:30:58;;;;;;;6.85;3.67;;;20.80;99.90;;;21.28;60.19;102120.75;5133945;27;20067;-67
2021/06/15 08:33:27;;;;;;;7.03;3.55;;;20.80;99.90;;;21.20;60.95;102112.91;5133386;27;20047;-67
2021/06/15 08:35:56;;;;;;;6.15;3.60;;;20.80;99.90;;;21.64;60.49;102118.81;5133586;27;20124;-67
2021/06/15 08:38:24;;;;;;;7.10;4.50;;;21.10;99.90;;;21.48;59.43;102127.34;5133649;27;20051;-67
2021/06/15 08:40:53;;;;;;;7.25;4.22;;;21.20;99.90;;;21.62;59.63;102123.38;5133408;27;20047;-67
2021/06/15 08:43:23;;;;;;;8.38;3.83;;;21.20;99.90;;;21.50;60.82;102127.31;5132962;27;20053;-67
2021/06/15 08:45:53;;;;;;;6.75;3.72;;;21.10;99.90;;;22.06;61.22;102123.78;5133349;27;20066;-67
2021/06/15 08:48:21;;;;;;;9.85;3.88;;;21.50;99.90;;;21.66;59.91;102116.97;5133348;27;20045;-67
2021/06/15 08:50:50;;;;;;;8.73;4.43;;;21.30;99.90;;;21.61;59.51;102108.13;5133092;27;20047;-67
2021/06/15 08:53:19;;;;;;;8.95;5.72;;;21.30;99.90;;;21.84;60.94;102113.72;5132994;27;20101;-67
2021/06/15 08:55:54;;;;;;;13.07;4.80;;;21.40;99.90;;;21.95;59.45;102122.38;5114693;28;20374;-67
2021/06/15 08:58:44;;;;;;;7.53;4.20;;;21.40;99.90;;;22.46;59.03;102123.38;5133128;28;20067;-67
2021/06/15 09:01:15;;;;;;;7.95;4.00;;;21.90;99.90;;;22.44;57.39;102123.41;5133105;28;20047;-67
2021/06/15 09:03:43;;;;;;;11.80;4.15;;;22.00;99.90;;;22.61;57.31;102114.78;5132741;28;20146;-67
2021/06/15 09:06:12;;;;;;;7.65;4.10;;;22.20;99.90;;;22.00;58.57;102115.00;5133110;28;20097;-69
2021/06/15 09:08:55;;;;;;;8.75;4.75;;;21.70;99.90;;;22.47;58.84;102117.06;5133432;28;20063;-67
2021/06/15 09:11:25;;;;;;;11.45;4.40;;;21.90;99.90;;;22.66;57.24;102123.63;5132855;28;20062;-67
2021/06/15 09:13:55;;;;;;;9.50;3.97;;;22.20;99.90;;;22.47;57.21;102125.16;5132933;28;20043;-67
2021/06/15 09:16:28;;;;;;;8.87;4.17;;;22.10;99.90;;;23.00;58.02;102120.59;5132866;28;20050;-67
2021/06/15 09:18:59;;;;;;;8.35;3.88;;;22.50;99.90;;;23.19;55.45;102127.09;5133024;28;20130;-67
2021/06/15 09:21:42;;;;;;;9.65;4.03;;;22.80;99.90;;;23.01;55.72;102092.69;5133176;28;20043;-67
2021/06/15 09:24:14;;;;;;;8.30;4.18;;;22.80;99.90;;;23.17;55.46;102127.16;5114389;28;20399;-66
2021/06/15 09:27:03;;;;;;;9.75;3.92;;;22.80;99.90;;;23.41;55.44;102108.31;5114274;28;20488;-67
2021/06/15 09:29:37;;;;;;;6.57;3.47;;;23.00;99.90;;;23.88;55.64;102121.78;5133236;28;20043;-67
2021/06/15 09:32:09;;;;;;;7.63;4.00;;;23.40;99.90;;;24.24;54.22;102124.84;5133247;28;20050;-67
2021/06/15 09:34:55;;;;;;;7.47;3.75;;;23.80;99.90;;;24.01;51.91;102035.63;5114773;28;20097;-67
2021/06/15 09:37:34;;;;;;;8.75;4.13;;;24.20;99.90;;;23.54;50.84;102098.84;5114655;28;20150;-67
2021/06/15 09:40:11;;;;;;;5.85;3.95;;;23.60;99.90;;;23.06;52.15;102112.28;5133055;28;20050;-67
2021/06/15 09:42:55;;;;;;;12.52;4.22;;;22.90;99.90;;;23.19;53.72;102114.47;5132932;28;20403;-66
2021/06/15 09:45:26;;;;;;;6.85;4.20;;;22.80;99.90;;;23.13;54.44;102111.16;5132811;28;20432;-67
2021/06/15 09:48:29;;;;;;;8.73;3.88;;;22.70;99.90;;;23.81;52.56;102122.09;5132584;28;20043;-67
2021/06/15 09:51:01;;;;;;;7.90;3.70;;;23.20;99.90;;;23.65;52.58;102113.69;5132929;28;20055;-67
2021/06/15 09:53:31;;;;;;;8.02;3.72;;;23.30;99.90;;;24.08;53.24;102130.00;5132907;28;20127;-67
2021/06/15 09:56:01;;;;;;;;;;;23.60;99.90;;;24.42;52.65;102101.56;5114677;28;20043;-67
2021/06/15 09:58:47;;;;;;;9.90;3.77;;;24.10;99.90;;;24.84;51.61;102122.28;5132301;28;19923;-67
2021/06/15 10:01:35;;;;;;;10.05;4.13;;;24.40;99.90;;;24.72;50.44;102114.69;5132586;28;20504;-67
2021/06/15 10:04:16;;;;;;;8.10;3.60;;;24.40;99.90;;;25.13;51.16;102118.28;5133456;27;20047;-67
2021/06/15 10:06:47;;;;;;;7.22;3.75;;;24.80;99.90;;;25.11;49.30;102108.47;5136309;27;20039;-67
2021/06/15 10:09:25;;;;;;;9.55;4.47;;;24.80;99.90;;;25.10;48.77;102120.25;5136393;27;20047;-67
2021/06/15 10:11:54;;;;;;;6.35;4.20;;;24.80;99.90;;;25.17;50.75;102119.03;5136101;27;20035;-67
2021/06/15 10:14:24;;;;;;;6.78;3.63;;;24.80;99.90;;;25.45;49.10;102115.06;5136445;27;20047;-67
2021/06/15 10:16:54;;;;;;;7.25;3.83;;;25.10;99.90;;;25.70;49.21;102115.66;5136240;27;20047;-67
2021/06/15 10:19:25;;;;;;;8.07;4.10;;;25.40;99.90;;;24.90;47.44;102099.47;5135945;27;20520;-67
2021/06/15 10:21:55;;;;;;;10.63;4.43;;;25.00;99.90;;;24.03;49.60;102115.78;5136119;27;20051;-67
2021/06/15 10:24:25;;;;;;;8.48;4.50;;;23.90;99.90;;;24.04;50.60;102100.47;5136030;27;20032;-67
2021/06/15 10:27:04;;;;;;;8.68;3.83;;;23.70;99.90;;;24.63;50.59;102114.19;5117390;27;20168;-67
2021/06/15 10:29:33;;;;;;;11.52;4.57;;;24.10;99.90;;;24.97;51.40;102106.41;5135768;27;20508;-67
2021/06/15 10:32:13;;;;;;;9.75;3.78;;;24.40;99.90;;;25.16;50.21;102110.06;5136038;27;20047;-67
2021/06/15 10:34:57;;;;;;;10.13;4.55;;;24.70;99.90;;;24.97;48.38;102103.69;5136075;27;20038;-67